sensor_id;sensor_type;location;lat;lon;timestamp;pressure;altitude;pressure_sealevel;temperature;humidity
41800;BME280;27468;47.460;19.034;2023-08-31T00:02:05;99697.38;;;15.48;100.00
41800;BME280;27468;47.460;19.034;2023-08-31T00:04:30;99670.72;;;15.33;100.00
41800;BME280;27468;47.460;19.034;2023-08-31T00:06:56;99635.47;;;15.12;100.00
41800;BME280;27468;47.460;19.034;2023-08-31T00:09:23;99682.66;;;15.41;100.00
41800;BME280;27468;47.460;19.034;2023-08-31T00:11:49;99673.13;;;15.37;100.00
41800;BME280;27468;47.460;19.034;2023-08-31T00:14:15;99682.28;;;15.49;100.00
41800;BME280;27468;47.460;19.034;2023-08-31T00:16:41;99684.22;;;15.45;100.00
41800;BME280;27468;47.460;19.034;2023-08-31T00:19:06;99678.13;;;15.43;100.00
41800;BME280;27468;47.460;19.034;2023-08-31T00:21:31;99678.53;;;15.53;100.00
41800;BME280;27468;47.460;19.034;2023-08-31T00:23:58;99655.88;;;15.29;100.00
41800;BME280;27468;47.460;19.034;2023-08-31T00:26:24;99686.03;;;15.45;100.00
41800;BME280;27468;47.460;19.034;2023-08-31T00:28:50;99691.19;;;15.48;100.00
41800;BME280;27468;47.460;19.034;2023-08-31T00:31:15;99700.88;;;15.49;100.00
41800;BME280;27468;47.460;19.034;2023-08-31T00:33:41;99684.22;;;15.45;100.00
41800;BME280;27468;47.460;19.034;2023-08-31T00:36:06;99704.91;;;15.58;100.00
41800;BME280;27468;47.460;19.034;2023-08-31T00:38:32;99677.13;;;15.46;100.00
41800;BME280;27468;47.460;19.034;2023-08-31T00:40:58;99662.97;;;15.45;100.00
41800;BME280;27468;47.460;19.034;2023-08-31T00:43:23;99641.25;;;15.37;100.00
41800;BME280;27468;47.460;19.034;2023-08-31T00:45:51;99692.84;;;15.68;100.00
41800;BME280;27468;47.460;19.034;2023-08-31T00:48:18;99691.97;;;15.67;100.00
41800;BME280;27468;47.460;19.034;2023-08-31T00:50:45;99686.28;;;15.75;100.00
41800;BME280;27468;47.460;19.034;2023-08-31T00:53:10;99669.16;;;15.63;100.00
41800;BME280;27468;47.460;19.034;2023-08-31T00:55:36;99689.72;;;15.77;100.00
41800;BME280;27468;47.460;19.034;2023-08-31T00:58:04;99674.22;;;15.68;100.00
41800;BME280;27468;47.460;19.034;2023-08-31T01:00:43;99688.59;;;15.81;100.00
41800;BME280;27468;47.460;19.034;2023-08-31T01:03:19;99674.84;;;15.73;100.00
41800;BME280;27468;47.460;19.034;2023-08-31T01:06:35;99694.78;;;15.81;100.00
41800;BME280;27468;47.460;19.034;2023-08-31T01:09:01;99695.56;;;15.83;100.00
41800;BME280;27468;47.460;19.034;2023-08-31T01:14:17;99705.25;;;15.84;100.00
41800;BME280;27468;47.460;19.034;2023-08-31T01:16:48;99673.28;;;15.69;100.00
41800;BME280;27468;47.460;19.034;2023-08-31T01:19:33;99665.41;;;15.67;100.00
41800;BME280;27468;47.460;19.034;2023-08-31T01:22:03;99681.88;;;15.74;100.00
41800;BME280;27468;47.460;19.034;2023-08-31T01:24:31;99695.72;;;15.80;100.00
41800;BME280;27468;47.460;19.034;2023-08-31T01:26:57;99710.72;;;15.81;100.00
41800;BME280;27468;47.460;19.034;2023-08-31T01:29:22;99724.09;;;15.80;100.00
41800;BME280;27468;47.460;19.034;2023-08-31T01:31:48;99731.38;;;15.76;100.00
41800;BME280;27468;47.460;19.034;2023-08-31T01:34:13;99675.88;;;15.53;100.00
41800;BME280;27468;47.460;19.034;2023-08-31T01:36:43;99672.53;;;15.49;100.00
41800;BME280;27468;47.460;19.034;2023-08-31T01:39:31;99718.94;;;15.77;100.00
41800;BME280;27468;47.460;19.034;2023-08-31T01:42:01;99726.22;;;15.73;100.00
41800;BME280;27468;47.460;19.034;2023-08-31T01:44:30;99671.88;;;15.44;100.00
41800;BME280;27468;47.460;19.034;2023-08-31T01:47:04;99707.28;;;15.62;100.00
41800;BME280;27468;47.460;19.034;2023-08-31T01:49:39;99717.69;;;15.67;100.00
41800;BME280;27468;47.460;19.034;2023-08-31T01:52:04;99720.19;;;15.70;100.00
41800;BME280;27468;47.460;19.034;2023-08-31T01:54:30;99722.00;;;15.69;100.00
41800;BME280;27468;47.460;19.034;2023-08-31T01:56:56;99672.84;;;15.43;100.00
41800;BME280;27468;47.460;19.034;2023-08-31T01:59:21;99702.28;;;15.56;100.00
41800;BME280;27468;47.460;19.034;2023-08-31T02:01:47;99726.44;;;15.69;100.00
41800;BME280;27468;47.460;19.034;2023-08-31T02:04:12;99710.22;;;15.58;100.00
41800;BME280;27468;47.460;19.034;2023-08-31T02:06:38;99693.13;;;15.44;100.00
41800;BME280;27468;47.460;19.034;2023-08-31T02:09:03;99713.06;;;15.53;100.00
41800;BME280;27468;47.460;19.034;2023-08-31T02:11:30;99707.91;;;15.50;100.00
41800;BME280;27468;47.460;19.034;2023-08-31T02:13:57;99703.06;;;15.41;100.00
41800;BME280;27468;47.460;19.034;2023-08-31T02:16:23;99711.59;;;15.47;100.00
41800;BME280;27468;47.460;19.034;2023-08-31T02:18:48;99729.94;;;15.52;100.00
41800;BME280;27468;47.460;19.034;2023-08-31T02:21:14;99720.34;;;15.49;100.00
41800;BME280;27468;47.460;19.034;2023-08-31T02:23:39;99728.81;;;15.58;100.00
41800;BME280;27468;47.460;19.034;2023-08-31T02:26:04;99721.78;;;15.57;100.00
41800;BME280;27468;47.460;19.034;2023-08-31T02:28:30;99691.03;;;15.34;100.00
41800;BME280;27468;47.460;19.034;2023-08-31T02:31:00;99718.91;;;15.42;100.00
41800;BME280;27468;47.460;19.034;2023-08-31T02:33:25;99731.19;;;15.45;100.00
41800;BME280;27468;47.460;19.034;2023-08-31T02:35:51;99719.16;;;15.38;100.00
41800;BME280;27468;47.460;19.034;2023-08-31T02:38:16;99735.72;;;15.43;100.00
41800;BME280;27468;47.460;19.034;2023-08-31T02:40:42;99741.03;;;15.43;100.00
41800;BME280;27468;47.460;19.034;2023-08-31T02:43:07;99738.53;;;15.40;100.00
41800;BME280;27468;47.460;19.034;2023-08-31T02:45:34;99722.81;;;15.35;100.00
41800;BME280;27468;47.460;19.034;2023-08-31T02:47:59;99742.75;;;15.44;100.00
41800;BME280;27468;47.460;19.034;2023-08-31T02:50:24;99746.34;;;15.43;100.00
41800;BME280;27468;47.460;19.034;2023-08-31T02:52:50;99705.22;;;15.15;100.00
41800;BME280;27468;47.460;19.034;2023-08-31T02:55:15;99706.00;;;15.17;100.00
41800;BME280;27468;47.460;19.034;2023-08-31T02:57:40;99749.88;;;15.43;100.00
41800;BME280;27468;47.460;19.034;2023-08-31T03:00:06;99699.03;;;15.15;100.00
41800;BME280;27468;47.460;19.034;2023-08-31T03:02:36;99643.88;;;14.85;100.00
41800;BME280;27468;47.460;19.034;2023-08-31T03:05:01;99744.63;;;15.42;100.00
41800;BME280;27468;47.460;19.034;2023-08-31T03:07:27;99703.91;;;15.24;100.00
41800;BME280;27468;47.460;19.034;2023-08-31T03:09:52;99692.09;;;15.12;100.00
41800;BME280;27468;47.460;19.034;2023-08-31T03:12:18;99718.59;;;15.31;100.00
41800;BME280;27468;47.460;19.034;2023-08-31T03:14:43;99725.69;;;15.31;100.00
41800;BME280;27468;47.460;19.034;2023-08-31T03:17:08;99686.47;;;15.18;100.00
41800;BME280;27468;47.460;19.034;2023-08-31T03:19:34;99732.28;;;15.41;100.00
41800;BME280;27468;47.460;19.034;2023-08-31T03:21:59;99691.06;;;15.15;100.00
41800;BME280;27468;47.460;19.034;2023-08-31T03:24:24;99747.19;;;15.43;100.00
41800;BME280;27468;47.460;19.034;2023-08-31T03:26:50;99738.31;;;15.44;100.00
41800;BME280;27468;47.460;19.034;2023-08-31T03:29:15;99696.53;;;15.12;100.00
41800;BME280;27468;47.460;19.034;2023-08-31T03:31:41;99740.56;;;15.35;100.00
41800;BME280;27468;47.460;19.034;2023-08-31T03:34:06;99748.59;;;15.33;100.00
41800;BME280;27468;47.460;19.034;2023-08-31T03:36:31;99701.28;;;15.05;100.00
41800;BME280;27468;47.460;19.034;2023-08-31T03:38:57;99737.47;;;15.25;100.00
41800;BME280;27468;47.460;19.034;2023-08-31T03:41:22;99754.13;;;15.29;100.00
41800;BME280;27468;47.460;19.034;2023-08-31T03:43:48;99750.75;;;15.25;100.00
41800;BME280;27468;47.460;19.034;2023-08-31T03:46:13;99731.84;;;15.14;100.00
41800;BME280;27468;47.460;19.034;2023-08-31T03:48:38;99765.53;;;15.31;100.00
41800;BME280;27468;47.460;19.034;2023-08-31T03:51:04;99756.78;;;15.29;100.00
41800;BME280;27468;47.460;19.034;2023-08-31T03:53:29;99741.16;;;15.23;100.00
41800;BME280;27468;47.460;19.034;2023-08-31T03:55:55;99726.81;;;15.08;100.00
41800;BME280;27468;47.460;19.034;2023-08-31T03:58:20;99745.69;;;15.20;100.00
41800;BME280;27468;47.460;19.034;2023-08-31T04:00:49;99758.66;;;15.27;100.00
41800;BME280;27468;47.460;19.034;2023-08-31T04:03:15;99759.75;;;15.23;100.00
41800;BME280;27468;47.460;19.034;2023-08-31T04:05:40;99768.06;;;15.15;100.00
41800;BME280;27468;47.460;19.034;2023-08-31T04:08:06;99748.22;;;15.05;100.00
41800;BME280;27468;47.460;19.034;2023-08-31T04:10:31;99771.59;;;15.15;100.00
41800;BME280;27468;47.460;19.034;2023-08-31T04:12:57;99768.78;;;15.18;100.00
41800;BME280;27468;47.460;19.034;2023-08-31T04:15:23;99760.19;;;15.13;100.00
41800;BME280;27468;47.460;19.034;2023-08-31T04:17:49;99752.66;;;15.04;100.00
41800;BME280;27468;47.460;19.034;2023-08-31T04:20:17;99726.59;;;14.95;100.00
41800;BME280;27468;47.460;19.034;2023-08-31T04:22:43;99755.66;;;15.15;100.00
41800;BME280;27468;47.460;19.034;2023-08-31T04:25:08;99746.59;;;15.19;100.00
41800;BME280;27468;47.460;19.034;2023-08-31T04:27:34;99740.41;;;15.02;100.00
41800;BME280;27468;47.460;19.034;2023-08-31T04:30:00;99768.78;;;15.18;100.00
41800;BME280;27468;47.460;19.034;2023-08-31T04:32:26;99780.75;;;15.27;100.00
41800;BME280;27468;47.460;19.034;2023-08-31T04:34:52;99763.31;;;15.22;100.00
41800;BME280;27468;47.460;19.034;2023-08-31T04:37:18;99761.38;;;15.25;100.00
41800;BME280;27468;47.460;19.034;2023-08-31T04:39:43;99782.91;;;15.38;100.00
41800;BME280;27468;47.460;19.034;2023-08-31T04:42:09;99799.19;;;15.49;100.00
41800;BME280;27468;47.460;19.034;2023-08-31T04:44:34;99753.41;;;15.25;100.00
41800;BME280;27468;47.460;19.034;2023-08-31T04:47:00;99811.38;;;15.53;100.00
41800;BME280;27468;47.460;19.034;2023-08-31T04:49:25;99758.59;;;15.28;100.00
41800;BME280;27468;47.460;19.034;2023-08-31T04:51:52;99800.38;;;15.61;100.00
41800;BME280;27468;47.460;19.034;2023-08-31T04:54:17;99811.03;;;15.78;100.00
41800;BME280;27468;47.460;19.034;2023-08-31T04:56:43;99773.13;;;15.57;100.00
41800;BME280;27468;47.460;19.034;2023-08-31T04:59:08;99814.25;;;15.84;100.00
41800;BME280;27468;47.460;19.034;2023-08-31T05:01:33;99804.22;;;15.90;100.00
41800;BME280;27468;47.460;19.034;2023-08-31T05:03:59;99813.38;;;16.01;100.00
41800;BME280;27468;47.460;19.034;2023-08-31T05:06:24;99773.50;;;15.84;100.00
41800;BME280;27468;47.460;19.034;2023-08-31T05:08:50;99795.78;;;15.99;100.00
41800;BME280;27468;47.460;19.034;2023-08-31T05:11:15;99816.94;;;16.17;100.00
41800;BME280;27468;47.460;19.034;2023-08-31T05:13:41;99822.03;;;16.22;100.00
41800;BME280;27468;47.460;19.034;2023-08-31T05:16:09;99834.47;;;16.22;100.00
41800;BME280;27468;47.460;19.034;2023-08-31T05:18:35;99777.34;;;15.96;100.00
41800;BME280;27468;47.460;19.034;2023-08-31T05:21:01;99843.84;;;16.46;100.00
41800;BME280;27468;47.460;19.034;2023-08-31T05:23:27;99844.63;;;16.48;98.61
41800;BME280;27468;47.460;19.034;2023-08-31T05:25:52;99848.84;;;16.52;97.28
41800;BME280;27468;47.460;19.034;2023-08-31T05:28:18;99848.63;;;16.57;96.94
41800;BME280;27468;47.460;19.034;2023-08-31T05:30:51;99814.81;;;16.41;96.03
41800;BME280;27468;47.460;19.034;2023-08-31T05:33:19;99825.34;;;16.60;97.02
41800;BME280;27468;47.460;19.034;2023-08-31T05:35:47;99859.16;;;16.75;92.48
41800;BME280;27468;47.460;19.034;2023-08-31T05:38:13;99861.06;;;16.89;92.31
41800;BME280;27468;47.460;19.034;2023-08-31T05:40:38;99821.31;;;16.70;92.10
41800;BME280;27468;47.460;19.034;2023-08-31T05:43:04;99872.09;;;16.99;92.09
41800;BME280;27468;47.460;19.034;2023-08-31T05:45:33;99870.75;;;17.07;91.30
41800;BME280;27468;47.460;19.034;2023-08-31T05:47:58;99832.13;;;16.83;89.64
41800;BME280;27468;47.460;19.034;2023-08-31T05:50:24;99877.94;;;17.05;90.80
41800;BME280;27468;47.460;19.034;2023-08-31T05:52:50;99821.38;;;16.84;90.29
41800;BME280;27468;47.460;19.034;2023-08-31T05:55:16;99875.47;;;17.18;90.20
41800;BME280;27468;47.460;19.034;2023-08-31T05:57:41;99857.59;;;17.04;89.85
41800;BME280;27468;47.460;19.034;2023-08-31T06:00:07;99877.13;;;17.21;90.50
41800;BME280;27468;47.460;19.034;2023-08-31T06:02:33;99889.25;;;17.26;90.02
41800;BME280;27468;47.460;19.034;2023-08-31T06:04:59;99873.06;;;17.13;87.81
41800;BME280;27468;47.460;19.034;2023-08-31T06:07:24;99872.72;;;17.20;88.49
41800;BME280;27468;47.460;19.034;2023-08-31T06:09:50;99899.63;;;17.46;88.94
41800;BME280;27468;47.460;19.034;2023-08-31T06:12:15;99887.59;;;17.55;87.86
41800;BME280;27468;47.460;19.034;2023-08-31T06:14:41;99888.41;;;17.73;87.11
41800;BME280;27468;47.460;19.034;2023-08-31T06:17:06;99880.84;;;17.81;85.27
41800;BME280;27468;47.460;19.034;2023-08-31T06:19:31;99894.78;;;18.00;85.60
41800;BME280;27468;47.460;19.034;2023-08-31T06:21:57;99877.25;;;17.96;83.80
41800;BME280;27468;47.460;19.034;2023-08-31T06:24:22;99898.44;;;18.29;84.34
41800;BME280;27468;47.460;19.034;2023-08-31T06:26:48;99855.44;;;18.20;84.03
41800;BME280;27468;47.460;19.034;2023-08-31T06:29:13;99844.22;;;18.29;83.65
41800;BME280;27468;47.460;19.034;2023-08-31T06:31:39;99894.81;;;18.74;82.69
41800;BME280;27468;47.460;19.034;2023-08-31T06:34:05;99908.19;;;18.89;81.03
41800;BME280;27468;47.460;19.034;2023-08-31T06:36:30;99911.25;;;19.11;81.14
41800;BME280;27468;47.460;19.034;2023-08-31T06:38:55;99914.56;;;19.29;81.35
41800;BME280;27468;47.460;19.034;2023-08-31T06:41:21;99912.00;;;19.27;80.36
41800;BME280;27468;47.460;19.034;2023-08-31T06:43:46;99868.75;;;19.21;80.35
41800;BME280;27468;47.460;19.034;2023-08-31T06:46:12;99900.91;;;19.48;78.29
41800;BME280;27468;47.460;19.034;2023-08-31T06:48:37;99901.09;;;19.44;76.68
41800;BME280;27468;47.460;19.034;2023-08-31T06:51:02;99899.78;;;19.52;74.70
41800;BME280;27468;47.460;19.034;2023-08-31T06:53:29;99915.03;;;19.64;75.36
41800;BME280;27468;47.460;19.034;2023-08-31T06:55:56;99907.03;;;19.64;74.60
41800;BME280;27468;47.460;19.034;2023-08-31T06:58:22;99912.16;;;19.67;74.45
41800;BME280;27468;47.460;19.034;2023-08-31T07:00:47;99874.56;;;19.41;74.38
41800;BME280;27468;47.460;19.034;2023-08-31T07:03:13;99916.81;;;19.77;74.27
41800;BME280;27468;47.460;19.034;2023-08-31T07:05:42;99930.94;;;19.79;73.77
41800;BME280;27468;47.460;19.034;2023-08-31T07:08:07;99933.97;;;19.88;74.50
41800;BME280;27468;47.460;19.034;2023-08-31T07:10:33;99928.53;;;19.89;74.16
41800;BME280;27468;47.460;19.034;2023-08-31T07:13:01;99946.16;;;20.06;74.24
41800;BME280;27468;47.460;19.034;2023-08-31T07:15:27;99909.69;;;19.91;74.06
41800;BME280;27468;47.460;19.034;2023-08-31T07:17:52;99940.94;;;20.17;73.29
41800;BME280;27468;47.460;19.034;2023-08-31T07:20:17;99894.81;;;19.87;73.97
41800;BME280;27468;47.460;19.034;2023-08-31T07:22:43;99912.97;;;20.08;72.69
41800;BME280;27468;47.460;19.034;2023-08-31T07:25:08;99932.06;;;20.29;72.74
41800;BME280;27468;47.460;19.034;2023-08-31T07:27:34;99940.06;;;20.43;72.69
41800;BME280;27468;47.460;19.034;2023-08-31T07:29:59;99901.47;;;20.33;71.76
41800;BME280;27468;47.460;19.034;2023-08-31T07:32:25;99891.91;;;20.29;71.64
41800;BME280;27468;47.460;19.034;2023-08-31T07:34:50;99934.75;;;20.56;71.66
41800;BME280;27468;47.460;19.034;2023-08-31T07:37:15;99947.75;;;20.75;71.36
41800;BME280;27468;47.460;19.034;2023-08-31T07:39:41;99952.25;;;20.87;70.96
41800;BME280;27468;47.460;19.034;2023-08-31T07:42:06;99956.97;;;20.96;70.85
41800;BME280;27468;47.460;19.034;2023-08-31T07:44:32;99913.34;;;20.69;69.92
41800;BME280;27468;47.460;19.034;2023-08-31T07:46:57;99957.06;;;20.95;68.97
41800;BME280;27468;47.460;19.034;2023-08-31T07:49:22;99965.88;;;21.09;69.75
41800;BME280;27468;47.460;19.034;2023-08-31T07:51:48;99955.56;;;21.16;69.03
41800;BME280;27468;47.460;19.034;2023-08-31T07:54:21;99952.56;;;21.21;67.40
41800;BME280;27468;47.460;19.034;2023-08-31T07:56:47;99940.38;;;21.29;67.95
41800;BME280;27468;47.460;19.034;2023-08-31T07:59:12;99956.16;;;21.34;66.63
41800;BME280;27468;47.460;19.034;2023-08-31T08:01:37;99916.03;;;21.32;65.30
41800;BME280;27468;47.460;19.034;2023-08-31T08:04:03;99966.69;;;21.61;64.56
41800;BME280;27468;47.460;19.034;2023-08-31T08:06:28;99953.63;;;21.56;63.89
41800;BME280;27468;47.460;19.034;2023-08-31T08:08:54;99924.78;;;21.47;64.95
41800;BME280;27468;47.460;19.034;2023-08-31T08:11:19;99969.38;;;21.73;63.81
41800;BME280;27468;47.460;19.034;2023-08-31T08:13:44;99954.03;;;21.63;63.69
41800;BME280;27468;47.460;19.034;2023-08-31T08:16:10;99920.59;;;21.43;63.89
41800;BME280;27468;47.460;19.034;2023-08-31T08:18:35;99933.47;;;21.51;64.38
41800;BME280;27468;47.460;19.034;2023-08-31T08:21:01;99968.28;;;21.76;65.02
41800;BME280;27468;47.460;19.034;2023-08-31T08:23:26;99934.72;;;21.58;65.03
41800;BME280;27468;47.460;19.034;2023-08-31T08:25:51;99973.13;;;21.71;64.22
41800;BME280;27468;47.460;19.034;2023-08-31T08:28:17;99977.72;;;21.82;64.33
41800;BME280;27468;47.460;19.034;2023-08-31T08:30:42;99927.13;;;21.52;63.68
41800;BME280;27468;47.460;19.034;2023-08-31T08:33:08;99957.66;;;21.74;64.50
41800;BME280;27468;47.460;19.034;2023-08-31T08:35:34;99966.13;;;21.81;63.29
41800;BME280;27468;47.460;19.034;2023-08-31T08:38:02;99984.69;;;21.84;63.69
41800;BME280;27468;47.460;19.034;2023-08-31T08:40:27;99942.03;;;21.56;60.49
41800;BME280;27468;47.460;19.034;2023-08-31T08:42:53;99984.16;;;21.79;59.66
41800;BME280;27468;47.460;19.034;2023-08-31T08:45:24;99981.81;;;21.74;60.84
41800;BME280;27468;47.460;19.034;2023-08-31T08:47:51;99950.69;;;21.72;63.23
41800;BME280;27468;47.460;19.034;2023-08-31T08:50:17;99963.53;;;21.92;63.04
41800;BME280;27468;47.460;19.034;2023-08-31T08:52:43;100000.75;;;22.33;62.58
41800;BME280;27468;47.460;19.034;2023-08-31T08:55:09;99998.75;;;22.48;61.47
41800;BME280;27468;47.460;19.034;2023-08-31T08:57:35;100006.47;;;22.64;60.40
41800;BME280;27468;47.460;19.034;2023-08-31T09:00:01;99982.41;;;22.62;58.75
41800;BME280;27468;47.460;19.034;2023-08-31T09:02:28;99993.06;;;22.88;57.54
41800;BME280;27468;47.460;19.034;2023-08-31T09:04:53;100002.63;;;23.03;56.60
41800;BME280;27468;47.460;19.034;2023-08-31T09:07:23;99967.72;;;22.79;56.89
41800;BME280;27468;47.460;19.034;2023-08-31T09:09:53;100011.19;;;23.19;55.25
41800;BME280;27468;47.460;19.034;2023-08-31T09:12:23;99995.41;;;23.03;53.38
41800;BME280;27468;47.460;19.034;2023-08-31T09:15:03;100012.91;;;23.20;53.52
41800;BME280;27468;47.460;19.034;2023-08-31T09:17:41;100014.38;;;23.24;55.37
41800;BME280;27468;47.460;19.034;2023-08-31T09:20:09;100016.84;;;23.38;54.03
41800;BME280;27468;47.460;19.034;2023-08-31T09:22:35;99983.19;;;23.22;52.31
41800;BME280;27468;47.460;19.034;2023-08-31T09:25:01;100022.78;;;23.55;52.35
41800;BME280;27468;47.460;19.034;2023-08-31T09:27:28;100022.41;;;23.59;51.83
41800;BME280;27468;47.460;19.034;2023-08-31T09:29:57;100019.09;;;23.56;52.22
41800;BME280;27468;47.460;19.034;2023-08-31T09:32:23;100033.16;;;23.70;52.49
41800;BME280;27468;47.460;19.034;2023-08-31T09:34:48;100012.50;;;23.60;51.84
41800;BME280;27468;47.460;19.034;2023-08-31T09:37:16;99971.59;;;23.32;50.34
41800;BME280;27468;47.460;19.034;2023-08-31T09:39:42;100037.19;;;23.76;50.35
41800;BME280;27468;47.460;19.034;2023-08-31T09:42:08;100009.69;;;23.61;50.36
41800;BME280;27468;47.460;19.034;2023-08-31T09:44:33;100019.97;;;23.67;50.39
41800;BME280;27468;47.460;19.034;2023-08-31T09:46:59;100009.44;;;23.64;49.75
41800;BME280;27468;47.460;19.034;2023-08-31T09:49:25;100033.03;;;23.72;49.79
41800;BME280;27468;47.460;19.034;2023-08-31T09:51:51;100040.13;;;23.73;49.31
41800;BME280;27468;47.460;19.034;2023-08-31T09:54:19;100047.47;;;23.82;49.20
41800;BME280;27468;47.460;19.034;2023-08-31T09:56:46;100043.06;;;23.81;48.32
41800;BME280;27468;47.460;19.034;2023-08-31T09:59:13;100030.44;;;23.93;48.06
41800;BME280;27468;47.460;19.034;2023-08-31T10:01:40;100035.09;;;24.02;47.64
41800;BME280;27468;47.460;19.034;2023-08-31T10:04:06;100018.47;;;23.97;47.47
41800;BME280;27468;47.460;19.034;2023-08-31T10:06:34;100005.63;;;23.78;46.97
41800;BME280;27468;47.460;19.034;2023-08-31T10:09:00;100004.16;;;23.74;46.00
41800;BME280;27468;47.460;19.034;2023-08-31T10:11:26;100046.97;;;24.11;46.83
41800;BME280;27468;47.460;19.034;2023-08-31T10:13:53;100050.50;;;24.22;47.10
41800;BME280;27468;47.460;19.034;2023-08-31T10:16:21;100052.72;;;24.17;47.83
41800;BME280;27468;47.460;19.034;2023-08-31T10:18:47;100011.72;;;24.02;45.99
41800;BME280;27468;47.460;19.034;2023-08-31T10:21:16;100048.06;;;24.08;46.68
41800;BME280;27468;47.460;19.034;2023-08-31T10:23:48;100031.78;;;23.98;46.13
41800;BME280;27468;47.460;19.034;2023-08-31T10:26:25;100057.38;;;24.04;47.23
41800;BME280;27468;47.460;19.034;2023-08-31T10:28:51;100069.97;;;23.92;48.66
41800;BME280;27468;47.460;19.034;2023-08-31T10:31:18;100063.00;;;23.90;49.47
41800;BME280;27468;47.460;19.034;2023-08-31T10:36:17;100071.94;;;23.90;51.91
41800;BME280;27468;47.460;19.034;2023-08-31T10:39:05;100069.97;;;24.03;52.35
41800;BME280;27468;47.460;19.034;2023-08-31T10:41:35;100068.88;;;24.17;52.11
41800;BME280;27468;47.460;19.034;2023-08-31T10:44:01;100045.75;;;24.03;52.11
41800;BME280;27468;47.460;19.034;2023-08-31T10:48:59;100066.28;;;24.38;49.68
41800;BME280;27468;47.460;19.034;2023-08-31T10:51:26;100043.25;;;24.34;49.04
41800;BME280;27468;47.460;19.034;2023-08-31T10:54:07;100083.41;;;24.37;48.87
41800;BME280;27468;47.460;19.034;2023-08-31T10:56:38;100090.28;;;24.30;49.69
41800;BME280;27468;47.460;19.034;2023-08-31T10:59:04;100068.16;;;24.04;49.42
41800;BME280;27468;47.460;19.034;2023-08-31T11:02:06;100094.94;;;24.17;49.87
41800;BME280;27468;47.460;19.034;2023-08-31T11:04:52;100098.72;;;24.36;49.49
41800;BME280;27468;47.460;19.034;2023-08-31T11:07:19;100081.22;;;24.42;49.22
41800;BME280;27468;47.460;19.034;2023-08-31T11:09:46;100094.88;;;24.61;48.75
41800;BME280;27468;47.460;19.034;2023-08-31T11:12:12;100111.53;;;24.66;47.62
41800;BME280;27468;47.460;19.034;2023-08-31T11:14:39;100100.03;;;24.64;47.65
41800;BME280;27468;47.460;19.034;2023-08-31T11:17:05;100062.94;;;24.46;47.76
41800;BME280;27468;47.460;19.034;2023-08-31T11:19:31;100104.81;;;24.61;47.74
41800;BME280;27468;47.460;19.034;2023-08-31T11:21:58;100074.84;;;24.43;48.34
41800;BME280;27468;47.460;19.034;2023-08-31T11:24:25;100096.47;;;24.64;48.69
41800;BME280;27468;47.460;19.034;2023-08-31T11:26:51;100106.13;;;24.78;49.67
41800;BME280;27468;47.460;19.034;2023-08-31T11:29:17;100104.06;;;25.02;48.97
41800;BME280;27468;47.460;19.034;2023-08-31T11:31:42;100093.16;;;24.92;48.01
41800;BME280;27468;47.460;19.034;2023-08-31T11:34:15;100080.78;;;24.90;48.35
41800;BME280;27468;47.460;19.034;2023-08-31T11:36:45;100103.69;;;25.07;47.94
41800;BME280;27468;47.460;19.034;2023-08-31T11:39:14;100104.94;;;25.02;47.92
41800;BME280;27468;47.460;19.034;2023-08-31T11:41:40;100097.81;;;25.01;47.73
41800;BME280;27468;47.460;19.034;2023-08-31T11:44:13;100096.13;;;25.00;48.48
41800;BME280;27468;47.460;19.034;2023-08-31T11:46:42;100066.66;;;24.77;45.41
41800;BME280;27468;47.460;19.034;2023-08-31T11:49:08;100085.78;;;24.74;48.29
41800;BME280;27468;47.460;19.034;2023-08-31T11:51:34;100097.91;;;24.79;48.68
41800;BME280;27468;47.460;19.034;2023-08-31T11:54:01;100070.84;;;24.69;48.70
41800;BME280;27468;47.460;19.034;2023-08-31T11:56:38;100086.56;;;24.96;47.95
41800;BME280;27468;47.460;19.034;2023-08-31T11:59:08;100087.31;;;24.87;45.29
41800;BME280;27468;47.460;19.034;2023-08-31T12:01:40;100099.28;;;24.94;45.81
41800;BME280;27468;47.460;19.034;2023-08-31T12:04:12;100097.69;;;24.92;46.32
41800;BME280;27468;47.460;19.034;2023-08-31T12:06:39;100078.88;;;24.49;45.91
41800;BME280;27468;47.460;19.034;2023-08-31T12:09:07;100101.63;;;24.56;46.47
41800;BME280;27468;47.460;19.034;2023-08-31T12:11:32;100094.31;;;24.35;47.67
41800;BME280;27468;47.460;19.034;2023-08-31T12:14:01;100090.88;;;24.45;47.37
41800;BME280;27468;47.460;19.034;2023-08-31T12:16:35;100097.09;;;24.56;47.82
41800;BME280;27468;47.460;19.034;2023-08-31T12:19:04;100068.09;;;24.38;48.83
41800;BME280;27468;47.460;19.034;2023-08-31T12:21:33;100059.41;;;24.34;48.74
41800;BME280;27468;47.460;19.034;2023-08-31T12:23:59;100104.31;;;24.67;48.36
41800;BME280;27468;47.460;19.034;2023-08-31T12:26:25;100107.59;;;24.71;48.60
41800;BME280;27468;47.460;19.034;2023-08-31T12:28:51;100096.72;;;24.61;46.06
41800;BME280;27468;47.460;19.034;2023-08-31T12:31:16;100104.81;;;24.61;47.21
41800;BME280;27468;47.460;19.034;2023-08-31T12:33:42;100060.16;;;24.25;45.50
41800;BME280;27468;47.460;19.034;2023-08-31T12:36:08;100085.03;;;24.28;47.18
41800;BME280;27468;47.460;19.034;2023-08-31T12:38:33;100054.53;;;24.17;47.45
41800;BME280;27468;47.460;19.034;2023-08-31T12:40:59;100058.47;;;24.24;46.00
41800;BME280;27468;47.460;19.034;2023-08-31T12:43:24;100072.53;;;24.39;44.40
41800;BME280;27468;47.460;19.034;2023-08-31T12:45:50;100099.91;;;24.66;44.36
41800;BME280;27468;47.460;19.034;2023-08-31T12:48:15;100112.91;;;24.61;44.24
41800;BME280;27468;47.460;19.034;2023-08-31T12:53:06;100045.25;;;24.10;44.67